sensor_id;sensor_type;location;lat;lon;timestamp;pressure;altitude;pressure_sealevel;temperature
19282;BMP180;9774;52.034;5.342;2023-04-03T00:00:35;102840.00;;;10.00
19282;BMP180;9774;52.034;5.342;2023-04-03T00:03:03;102845.00;;;10.00
19282;BMP180;9774;52.034;5.342;2023-04-03T00:05:30;102849.00;;;10.00
19282;BMP180;9774;52.034;5.342;2023-04-03T00:07:58;102851.00;;;9.90
19282;BMP180;9774;52.034;5.342;2023-04-03T00:10:26;102843.00;;;9.90
19282;BMP180;9774;52.034;5.342;2023-04-03T00:12:55;102840.00;;;9.90
19282;BMP180;9774;52.034;5.342;2023-04-03T00:15:23;102842.00;;;9.90
19282;BMP180;9774;52.034;5.342;2023-04-03T00:17:50;102847.00;;;9.80
19282;BMP180;9774;52.034;5.342;2023-04-03T00:20:17;102847.00;;;9.80
19282;BMP180;9774;52.034;5.342;2023-04-03T00:22:45;102850.00;;;9.80
19282;BMP180;9774;52.034;5.342;2023-04-03T00:25:13;102848.00;;;9.80
19282;BMP180;9774;52.034;5.342;2023-04-03T00:27:40;102861.00;;;9.70
19282;BMP180;9774;52.034;5.342;2023-04-03T00:30:13;102853.00;;;9.70
19282;BMP180;9774;52.034;5.342;2023-04-03T00:32:40;102851.00;;;9.70
19282;BMP180;9774;52.034;5.342;2023-04-03T00:35:08;102852.00;;;9.70
19282;BMP180;9774;52.034;5.342;2023-04-03T00:37:36;102861.00;;;9.60
19282;BMP180;9774;52.034;5.342;2023-04-03T00:40:05;102857.00;;;9.60
19282;BMP180;9774;52.034;5.342;2023-04-03T00:42:32;102861.00;;;9.60
19282;BMP180;9774;52.034;5.342;2023-04-03T00:45:25;102852.00;;;9.50
19282;BMP180;9774;52.034;5.342;2023-04-03T00:47:52;102857.00;;;9.50
19282;BMP180;9774;52.034;5.342;2023-04-03T00:50:20;102855.00;;;9.50
19282;BMP180;9774;52.034;5.342;2023-04-03T00:52:48;102859.00;;;9.50
19282;BMP180;9774;52.034;5.342;2023-04-03T00:55:16;102860.00;;;9.50
19282;BMP180;9774;52.034;5.342;2023-04-03T00:57:43;102867.00;;;9.50
19282;BMP180;9774;52.034;5.342;2023-04-03T01:00:14;102865.00;;;9.40
19282;BMP180;9774;52.034;5.342;2023-04-03T01:02:44;102863.00;;;9.40
19282;BMP180;9774;52.034;5.342;2023-04-03T01:05:12;102863.00;;;9.40
19282;BMP180;9774;52.034;5.342;2023-04-03T01:07:42;102862.00;;;9.40
19282;BMP180;9774;52.034;5.342;2023-04-03T01:10:11;102865.00;;;9.40
19282;BMP180;9774;52.034;5.342;2023-04-03T01:12:41;102860.00;;;9.40
19282;BMP180;9774;52.034;5.342;2023-04-03T01:15:11;102869.00;;;9.30
19282;BMP180;9774;52.034;5.342;2023-04-03T01:17:41;102870.00;;;9.30
19282;BMP180;9774;52.034;5.342;2023-04-03T01:23:36;102865.00;;;9.20
19282;BMP180;9774;52.034;5.342;2023-04-03T01:26:05;102866.00;;;9.30
19282;BMP180;9774;52.034;5.342;2023-04-03T01:28:34;102867.00;;;9.20
19282;BMP180;9774;52.034;5.342;2023-04-03T01:31:09;102871.00;;;9.20
19282;BMP180;9774;52.034;5.342;2023-04-03T01:33:40;102871.00;;;9.20
19282;BMP180;9774;52.034;5.342;2023-04-03T01:36:14;102864.00;;;9.10
19282;BMP180;9774;52.034;5.342;2023-04-03T01:38:42;102869.00;;;9.20
19282;BMP180;9774;52.034;5.342;2023-04-03T01:41:10;102863.00;;;9.20
19282;BMP180;9774;52.034;5.342;2023-04-03T01:43:37;102859.00;;;9.20
19282;BMP180;9774;52.034;5.342;2023-04-03T01:46:04;102863.00;;;9.10
19282;BMP180;9774;52.034;5.342;2023-04-03T01:48:32;102858.00;;;9.10
19282;BMP180;9774;52.034;5.342;2023-04-03T01:51:00;102859.00;;;9.10
19282;BMP180;9774;52.034;5.342;2023-04-03T01:53:27;102869.00;;;9.10
19282;BMP180;9774;52.034;5.342;2023-04-03T01:55:55;102861.00;;;9.10
19282;BMP180;9774;52.034;5.342;2023-04-03T01:58:23;102867.00;;;9.10
19282;BMP180;9774;52.034;5.342;2023-04-03T02:00:51;102876.00;;;9.10
19282;BMP180;9774;52.034;5.342;2023-04-03T02:03:19;102874.00;;;9.10
19282;BMP180;9774;52.034;5.342;2023-04-03T02:05:47;102876.00;;;9.10
19282;BMP180;9774;52.034;5.342;2023-04-03T02:08:16;102883.00;;;9.10
19282;BMP180;9774;52.034;5.342;2023-04-03T02:10:46;102882.00;;;9.10
19282;BMP180;9774;52.034;5.342;2023-04-03T02:13:14;102880.00;;;9.10
19282;BMP180;9774;52.034;5.342;2023-04-03T02:15:41;102886.00;;;9.10
19282;BMP180;9774;52.034;5.342;2023-04-03T02:18:09;102886.00;;;9.10
19282;BMP180;9774;52.034;5.342;2023-04-03T02:20:36;102887.00;;;9.00
19282;BMP180;9774;52.034;5.342;2023-04-03T02:23:03;102895.00;;;9.00
19282;BMP180;9774;52.034;5.342;2023-04-03T02:25:33;102890.00;;;9.00
19282;BMP180;9774;52.034;5.342;2023-04-03T02:28:00;102886.00;;;9.00
19282;BMP180;9774;52.034;5.342;2023-04-03T02:30:28;102896.00;;;9.00
19282;BMP180;9774;52.034;5.342;2023-04-03T02:32:55;102888.00;;;9.00
19282;BMP180;9774;52.034;5.342;2023-04-03T02:35:22;102899.00;;;9.00
19282;BMP180;9774;52.034;5.342;2023-04-03T02:37:50;102886.00;;;9.00
19282;BMP180;9774;52.034;5.342;2023-04-03T02:40:17;102888.00;;;9.00
19282;BMP180;9774;52.034;5.342;2023-04-03T02:42:46;102887.00;;;8.90
19282;BMP180;9774;52.034;5.342;2023-04-03T02:45:13;102888.00;;;9.00
19282;BMP180;9774;52.034;5.342;2023-04-03T02:47:40;102899.00;;;9.00
19282;BMP180;9774;52.034;5.342;2023-04-03T02:50:08;102886.00;;;8.90
19282;BMP180;9774;52.034;5.342;2023-04-03T02:52:36;102889.00;;;8.90
19282;BMP180;9774;52.034;5.342;2023-04-03T02:55:04;102897.00;;;8.90
19282;BMP180;9774;52.034;5.342;2023-04-03T02:57:31;102907.00;;;8.90
19282;BMP180;9774;52.034;5.342;2023-04-03T03:00:00;102909.00;;;8.90
19282;BMP180;9774;52.034;5.342;2023-04-03T03:02:27;102910.00;;;8.90
19282;BMP180;9774;52.034;5.342;2023-04-03T03:04:54;102908.00;;;8.90
19282;BMP180;9774;52.034;5.342;2023-04-03T03:07:22;102908.00;;;8.90
19282;BMP180;9774;52.034;5.342;2023-04-03T03:09:49;102914.00;;;8.90
19282;BMP180;9774;52.034;5.342;2023-04-03T03:12:16;102920.00;;;8.90
19282;BMP180;9774;52.034;5.342;2023-04-03T03:14:47;102922.00;;;8.90
19282;BMP180;9774;52.034;5.342;2023-04-03T03:17:16;102914.00;;;8.80
19282;BMP180;9774;52.034;5.342;2023-04-03T03:19:43;102913.00;;;8.80
19282;BMP180;9774;52.034;5.342;2023-04-03T03:22:11;102917.00;;;8.80
19282;BMP180;9774;52.034;5.342;2023-04-03T03:24:39;102920.00;;;8.80
19282;BMP180;9774;52.034;5.342;2023-04-03T03:27:06;102914.00;;;8.80
19282;BMP180;9774;52.034;5.342;2023-04-03T03:29:33;102927.00;;;8.80
19282;BMP180;9774;52.034;5.342;2023-04-03T03:32:01;102921.00;;;8.80
19282;BMP180;9774;52.034;5.342;2023-04-03T03:34:30;102924.00;;;8.70
19282;BMP180;9774;52.034;5.342;2023-04-03T03:36:58;102932.00;;;8.80
19282;BMP180;9774;52.034;5.342;2023-04-03T03:39:25;102924.00;;;8.80
19282;BMP180;9774;52.034;5.342;2023-04-03T03:41:52;102929.00;;;8.70
19282;BMP180;9774;52.034;5.342;2023-04-03T03:44:20;102927.00;;;8.70
19282;BMP180;9774;52.034;5.342;2023-04-03T03:46:48;102929.00;;;8.70
19282;BMP180;9774;52.034;5.342;2023-04-03T03:49:15;102920.00;;;8.70
19282;BMP180;9774;52.034;5.342;2023-04-03T03:51:44;102923.00;;;8.70
19282;BMP180;9774;52.034;5.342;2023-04-03T03:54:11;102929.00;;;8.70
19282;BMP180;9774;52.034;5.342;2023-04-03T03:56:39;102930.00;;;8.70
19282;BMP180;9774;52.034;5.342;2023-04-03T03:59:06;102926.00;;;8.70
19282;BMP180;9774;52.034;5.342;2023-04-03T04:01:34;102930.00;;;8.70
19282;BMP180;9774;52.034;5.342;2023-04-03T04:04:01;102931.00;;;8.70
19282;BMP180;9774;52.034;5.342;2023-04-03T04:06:28;102935.00;;;8.60
19282;BMP180;9774;52.034;5.342;2023-04-03T04:08:57;102937.00;;;8.60
19282;BMP180;9774;52.034;5.342;2023-04-03T04:11:24;102930.00;;;8.60
19282;BMP180;9774;52.034;5.342;2023-04-03T04:13:53;102936.00;;;8.60
19282;BMP180;9774;52.034;5.342;2023-04-03T04:16:21;102931.00;;;8.60
19282;BMP180;9774;52.034;5.342;2023-04-03T04:18:48;102932.00;;;8.60
19282;BMP180;9774;52.034;5.342;2023-04-03T04:21:15;102941.00;;;8.60
19282;BMP180;9774;52.034;5.342;2023-04-03T04:23:42;102943.00;;;8.60
19282;BMP180;9774;52.034;5.342;2023-04-03T04:26:11;102940.00;;;8.50
19282;BMP180;9774;52.034;5.342;2023-04-03T04:28:38;102941.00;;;8.50
19282;BMP180;9774;52.034;5.342;2023-04-03T04:31:05;102948.00;;;8.50
19282;BMP180;9774;52.034;5.342;2023-04-03T04:33:33;102950.00;;;8.50
19282;BMP180;9774;52.034;5.342;2023-04-03T04:36:00;102943.00;;;8.50
19282;BMP180;9774;52.034;5.342;2023-04-03T04:38:28;102948.00;;;8.50
19282;BMP180;9774;52.034;5.342;2023-04-03T04:40:55;102951.00;;;8.40
19282;BMP180;9774;52.034;5.342;2023-04-03T04:43:24;102950.00;;;8.40
19282;BMP180;9774;52.034;5.342;2023-04-03T04:46:01;102953.00;;;8.30
19282;BMP180;9774;52.034;5.342;2023-04-03T04:48:28;102958.00;;;8.40
19282;BMP180;9774;52.034;5.342;2023-04-03T04:50:57;102962.00;;;8.40
19282;BMP180;9774;52.034;5.342;2023-04-03T04:53:24;102954.00;;;8.40
19282;BMP180;9774;52.034;5.342;2023-04-03T04:55:52;102960.00;;;8.30
19282;BMP180;9774;52.034;5.342;2023-04-03T04:58:20;102959.00;;;8.30
19282;BMP180;9774;52.034;5.342;2023-04-03T05:00:48;102960.00;;;8.30
19282;BMP180;9774;52.034;5.342;2023-04-03T05:03:16;102961.00;;;8.30
19282;BMP180;9774;52.034;5.342;2023-04-03T05:05:43;102967.00;;;8.20
19282;BMP180;9774;52.034;5.342;2023-04-03T05:08:11;102960.00;;;8.20
19282;BMP180;9774;52.034;5.342;2023-04-03T05:10:38;102965.00;;;8.20
19282;BMP180;9774;52.034;5.342;2023-04-03T05:13:06;102963.00;;;8.20
19282;BMP180;9774;52.034;5.342;2023-04-03T05:15:34;102962.00;;;8.20
19282;BMP180;9774;52.034;5.342;2023-04-03T05:18:02;102961.00;;;8.20
19282;BMP180;9774;52.034;5.342;2023-04-03T05:20:31;102969.00;;;8.20
19282;BMP180;9774;52.034;5.342;2023-04-03T05:22:58;102969.00;;;8.20
19282;BMP180;9774;52.034;5.342;2023-04-03T05:25:26;102968.00;;;8.20
19282;BMP180;9774;52.034;5.342;2023-04-03T05:27:53;102970.00;;;8.20
19282;BMP180;9774;52.034;5.342;2023-04-03T05:30:20;102976.00;;;8.20
19282;BMP180;9774;52.034;5.342;2023-04-03T05:32:48;102978.00;;;8.10
19282;BMP180;9774;52.034;5.342;2023-04-03T05:35:17;102982.00;;;8.10
19282;BMP180;9774;52.034;5.342;2023-04-03T05:37:44;102989.00;;;8.10
19282;BMP180;9774;52.034;5.342;2023-04-03T05:40:11;102984.00;;;8.10
19282;BMP180;9774;52.034;5.342;2023-04-03T05:42:39;102978.00;;;8.10
19282;BMP180;9774;52.034;5.342;2023-04-03T05:45:07;102984.00;;;8.20
19282;BMP180;9774;52.034;5.342;2023-04-03T05:47:34;102990.00;;;8.10
19282;BMP180;9774;52.034;5.342;2023-04-03T05:50:01;102993.00;;;8.20
19282;BMP180;9774;52.034;5.342;2023-04-03T05:52:33;102990.00;;;8.20
19282;BMP180;9774;52.034;5.342;2023-04-03T05:55:00;102994.00;;;8.20
19282;BMP180;9774;52.034;5.342;2023-04-03T05:57:27;103000.00;;;8.20
19282;BMP180;9774;52.034;5.342;2023-04-03T05:59:55;103007.00;;;8.20
19282;BMP180;9774;52.034;5.342;2023-04-03T06:02:23;103001.00;;;8.30
19282;BMP180;9774;52.034;5.342;2023-04-03T06:04:51;103000.00;;;8.30
19282;BMP180;9774;52.034;5.342;2023-04-03T06:07:20;103001.00;;;8.30
19282;BMP180;9774;52.034;5.342;2023-04-03T06:09:50;103012.00;;;8.40
19282;BMP180;9774;52.034;5.342;2023-04-03T06:12:18;103013.00;;;8.40
19282;BMP180;9774;52.034;5.342;2023-04-03T06:14:46;103017.00;;;8.50
19282;BMP180;9774;52.034;5.342;2023-04-03T06:17:14;103014.00;;;8.60
19282;BMP180;9774;52.034;5.342;2023-04-03T06:19:42;103018.00;;;8.60
19282;BMP180;9774;52.034;5.342;2023-04-03T06:22:09;103005.00;;;8.70
19282;BMP180;9774;52.034;5.342;2023-04-03T06:24:37;103021.00;;;8.70
19282;BMP180;9774;52.034;5.342;2023-04-03T06:27:06;103024.00;;;8.80
19282;BMP180;9774;52.034;5.342;2023-04-03T06:29:33;103022.00;;;8.90
19282;BMP180;9774;52.034;5.342;2023-04-03T06:32:01;103017.00;;;9.00
19282;BMP180;9774;52.034;5.342;2023-04-03T06:34:28;103022.00;;;9.00
19282;BMP180;9774;52.034;5.342;2023-04-03T06:36:55;103027.00;;;9.10
19282;BMP180;9774;52.034;5.342;2023-04-03T06:39:23;103030.00;;;9.20
19282;BMP180;9774;52.034;5.342;2023-04-03T06:41:50;103029.00;;;9.20
19282;BMP180;9774;52.034;5.342;2023-04-03T06:44:19;103027.00;;;9.30
19282;BMP180;9774;52.034;5.342;2023-04-03T06:46:46;103029.00;;;9.40
19282;BMP180;9774;52.034;5.342;2023-04-03T06:49:14;103046.00;;;9.40
19282;BMP180;9774;52.034;5.342;2023-04-03T06:51:41;103036.00;;;9.50
19282;BMP180;9774;52.034;5.342;2023-04-03T06:54:09;103045.00;;;9.50
19282;BMP180;9774;52.034;5.342;2023-04-03T06:56:36;103043.00;;;9.60
19282;BMP180;9774;52.034;5.342;2023-04-03T06:59:04;103050.00;;;9.60
19282;BMP180;9774;52.034;5.342;2023-04-03T07:01:32;103054.00;;;9.70
19282;BMP180;9774;52.034;5.342;2023-04-03T07:04:00;103061.00;;;9.70
19282;BMP180;9774;52.034;5.342;2023-04-03T07:06:27;103049.00;;;9.80
19282;BMP180;9774;52.034;5.342;2023-04-03T07:08:54;103053.00;;;9.90
19282;BMP180;9774;52.034;5.342;2023-04-03T07:11:22;103054.00;;;9.90
19282;BMP180;9774;52.034;5.342;2023-04-03T07:13:51;103064.00;;;10.00
19282;BMP180;9774;52.034;5.342;2023-04-03T07:16:18;103056.00;;;10.00
19282;BMP180;9774;52.034;5.342;2023-04-03T07:18:47;103069.00;;;10.10
19282;BMP180;9774;52.034;5.342;2023-04-03T07:21:14;103061.00;;;10.10
19282;BMP180;9774;52.034;5.342;2023-04-03T07:23:42;103073.00;;;10.20
19282;BMP180;9774;52.034;5.342;2023-04-03T07:26:09;103076.00;;;10.30
19282;BMP180;9774;52.034;5.342;2023-04-03T07:28:36;103066.00;;;10.30
19282;BMP180;9774;52.034;5.342;2023-04-03T07:31:07;103075.00;;;10.40
19282;BMP180;9774;52.034;5.342;2023-04-03T07:33:37;103074.00;;;10.40
19282;BMP180;9774;52.034;5.342;2023-04-03T07:36:07;103074.00;;;10.50
19282;BMP180;9774;52.034;5.342;2023-04-03T07:38:35;103067.00;;;10.60
19282;BMP180;9774;52.034;5.342;2023-04-03T07:41:04;103075.00;;;10.60
19282;BMP180;9774;52.034;5.342;2023-04-03T07:43:32;103074.00;;;10.70
19282;BMP180;9774;52.034;5.342;2023-04-03T07:46:00;103079.00;;;10.80
19282;BMP180;9774;52.034;5.342;2023-04-03T07:48:28;103068.00;;;10.80
19282;BMP180;9774;52.034;5.342;2023-04-03T07:50:59;103079.00;;;10.80
19282;BMP180;9774;52.034;5.342;2023-04-03T07:53:29;103068.00;;;11.00
19282;BMP180;9774;52.034;5.342;2023-04-03T07:55:57;103069.00;;;11.00
19282;BMP180;9774;52.034;5.342;2023-04-03T07:58:24;103083.00;;;11.10
19282;BMP180;9774;52.034;5.342;2023-04-03T08:00:52;103079.00;;;11.20
19282;BMP180;9774;52.034;5.342;2023-04-03T08:03:20;103080.00;;;11.30
19282;BMP180;9774;52.034;5.342;2023-04-03T08:05:48;103085.00;;;11.30
19282;BMP180;9774;52.034;5.342;2023-04-03T08:08:18;103075.00;;;11.40
19282;BMP180;9774;52.034;5.342;2023-04-03T08:10:50;103090.00;;;11.40
19282;BMP180;9774;52.034;5.342;2023-04-03T08:13:18;103075.00;;;11.50
19282;BMP180;9774;52.034;5.342;2023-04-03T08:15:45;103080.00;;;11.50
19282;BMP180;9774;52.034;5.342;2023-04-03T08:18:13;103090.00;;;11.60
19282;BMP180;9774;52.034;5.342;2023-04-03T08:20:41;103091.00;;;11.60
19282;BMP180;9774;52.034;5.342;2023-04-03T08:23:09;103099.00;;;11.70
19282;BMP180;9774;52.034;5.342;2023-04-03T08:25:39;103093.00;;;11.70
19282;BMP180;9774;52.034;5.342;2023-04-03T08:28:08;103102.00;;;11.80
19282;BMP180;9774;52.034;5.342;2023-04-03T08:30:35;103098.00;;;11.90
19282;BMP180;9774;52.034;5.342;2023-04-03T08:33:04;103101.00;;;11.90
19282;BMP180;9774;52.034;5.342;2023-04-03T08:35:32;103100.00;;;11.90
19282;BMP180;9774;52.034;5.342;2023-04-03T08:37:59;103108.00;;;12.00
19282;BMP180;9774;52.034;5.342;2023-04-03T08:40:26;103112.00;;;12.00
19282;BMP180;9774;52.034;5.342;2023-04-03T08:43:03;103121.00;;;12.00
19282;BMP180;9774;52.034;5.342;2023-04-03T08:45:42;103123.00;;;12.10
19282;BMP180;9774;52.034;5.342;2023-04-03T08:48:14;103115.00;;;12.20
19282;BMP180;9774;52.034;5.342;2023-04-03T08:50:45;103120.00;;;12.30
19282;BMP180;9774;52.034;5.342;2023-04-03T08:53:15;103121.00;;;12.40
19282;BMP180;9774;52.034;5.342;2023-04-03T08:55:45;103121.00;;;12.40
19282;BMP180;9774;52.034;5.342;2023-04-03T08:58:16;103106.00;;;12.50
19282;BMP180;9774;52.034;5.342;2023-04-03T09:00:49;103111.00;;;12.60
19282;BMP180;9774;52.034;5.342;2023-04-03T09:03:18;103102.00;;;12.70
19282;BMP180;9774;52.034;5.342;2023-04-03T09:05:49;103105.00;;;12.70
19282;BMP180;9774;52.034;5.342;2023-04-03T09:08:27;103109.00;;;12.80
19282;BMP180;9774;52.034;5.342;2023-04-03T09:11:05;103102.00;;;12.90
19282;BMP180;9774;52.034;5.342;2023-04-03T09:13:36;103103.00;;;13.00
19282;BMP180;9774;52.034;5.342;2023-04-03T09:16:18;103105.00;;;13.00
19282;BMP180;9774;52.034;5.342;2023-04-03T09:18:55;103108.00;;;13.10
19282;BMP180;9774;52.034;5.342;2023-04-03T09:21:27;103111.00;;;13.20
19282;BMP180;9774;52.034;5.342;2023-04-03T09:24:00;103112.00;;;13.30
19282;BMP180;9774;52.034;5.342;2023-04-03T09:26:31;103106.00;;;13.30
19282;BMP180;9774;52.034;5.342;2023-04-03T09:29:05;103109.00;;;13.50
19282;BMP180;9774;52.034;5.342;2023-04-03T09:31:39;103106.00;;;13.50
19282;BMP180;9774;52.034;5.342;2023-04-03T09:34:18;103106.00;;;13.60
19282;BMP180;9774;52.034;5.342;2023-04-03T09:36:48;103107.00;;;13.70
19282;BMP180;9774;52.034;5.342;2023-04-03T09:39:19;103110.00;;;13.80
19282;BMP180;9774;52.034;5.342;2023-04-03T09:41:57;103100.00;;;13.80
19282;BMP180;9774;52.034;5.342;2023-04-03T09:44:27;103098.00;;;14.00
19282;BMP180;9774;52.034;5.342;2023-04-03T09:46:58;103086.00;;;14.00
19282;BMP180;9774;52.034;5.342;2023-04-03T09:49:26;103089.00;;;14.10
19282;BMP180;9774;52.034;5.342;2023-04-03T09:51:54;103096.00;;;14.10
19282;BMP180;9774;52.034;5.342;2023-04-03T09:54:35;103100.00;;;14.20
19282;BMP180;9774;52.034;5.342;2023-04-03T09:57:09;103091.00;;;14.20
19282;BMP180;9774;52.034;5.342;2023-04-03T09:59:41;103086.00;;;14.30
19282;BMP180;9774;52.034;5.342;2023-04-03T10:02:28;103079.00;;;14.30
19282;BMP180;9774;52.034;5.342;2023-04-03T10:04:58;103070.00;;;14.40
19282;BMP180;9774;52.034;5.342;2023-04-03T10:07:32;103074.00;;;14.40
19282;BMP180;9774;52.034;5.342;2023-04-03T10:10:01;103074.00;;;14.50
19282;BMP180;9774;52.034;5.342;2023-04-03T10:12:30;103074.00;;;14.60
19282;BMP180;9774;52.034;5.342;2023-04-03T10:14:59;103063.00;;;14.70
19282;BMP180;9774;52.034;5.342;2023-04-03T10:17:53;103065.00;;;14.60
19282;BMP180;9774;52.034;5.342;2023-04-03T10:20:30;103058.00;;;14.80
19282;BMP180;9774;52.034;5.342;2023-04-03T10:23:15;103056.00;;;14.80
19282;BMP180;9774;52.034;5.342;2023-04-03T10:25:54;103065.00;;;14.90
19282;BMP180;9774;52.034;5.342;2023-04-03T10:28:28;103053.00;;;15.00
19282;BMP180;9774;52.034;5.342;2023-04-03T10:31:04;103053.00;;;15.00
19282;BMP180;9774;52.034;5.342;2023-04-03T10:33:44;103045.00;;;15.00
19282;BMP180;9774;52.034;5.342;2023-04-03T10:36:21;103047.00;;;15.10
19282;BMP180;9774;52.034;5.342;2023-04-03T10:38:58;103045.00;;;15.20
19282;BMP180;9774;52.034;5.342;2023-04-03T10:41:35;103042.00;;;15.30
19282;BMP180;9774;52.034;5.342;2023-04-03T10:44:12;103027.00;;;15.30
19282;BMP180;9774;52.034;5.342;2023-04-03T10:46:44;103028.00;;;15.40
19282;BMP180;9774;52.034;5.342;2023-04-03T10:49:24;103025.00;;;15.40
19282;BMP180;9774;52.034;5.342;2023-04-03T10:51:57;103009.00;;;15.40
19282;BMP180;9774;52.034;5.342;2023-04-03T10:54:34;103014.00;;;15.50
19282;BMP180;9774;52.034;5.342;2023-04-03T10:57:04;103017.00;;;15.60
19282;BMP180;9774;52.034;5.342;2023-04-03T10:59:35;103013.00;;;15.60
19282;BMP180;9774;52.034;5.342;2023-04-03T11:02:07;103027.00;;;15.70
19282;BMP180;9774;52.034;5.342;2023-04-03T11:04:40;103035.00;;;15.70
19282;BMP180;9774;52.034;5.342;2023-04-03T11:07:14;103024.00;;;15.80
19282;BMP180;9774;52.034;5.342;2023-04-03T11:09:46;103027.00;;;15.90
19282;BMP180;9774;52.034;5.342;2023-04-03T11:12:25;103026.00;;;15.90
19282;BMP180;9774;52.034;5.342;2023-04-03T11:14:55;103026.00;;;16.00
19282;BMP180;9774;52.034;5.342;2023-04-03T11:17:28;103016.00;;;16.00
19282;BMP180;9774;52.034;5.342;2023-04-03T11:20:06;103028.00;;;16.10
19282;BMP180;9774;52.034;5.342;2023-04-03T11:22:38;103015.00;;;16.10
19282;BMP180;9774;52.034;5.342;2023-04-03T11:25:15;103022.00;;;16.10
19282;BMP180;9774;52.034;5.342;2023-04-03T11:27:49;103026.00;;;16.10
19282;BMP180;9774;52.034;5.342;2023-04-03T11:30:20;103020.00;;;16.20
19282;BMP180;9774;52.034;5.342;2023-04-03T11:33:01;103017.00;;;16.10
19282;BMP180;9774;52.034;5.342;2023-04-03T11:35:32;103011.00;;;16.20
19282;BMP180;9774;52.034;5.342;2023-04-03T11:38:01;103021.00;;;16.30
19282;BMP180;9774;52.034;5.342;2023-04-03T11:40:33;103017.00;;;16.30
19282;BMP180;9774;52.034;5.342;2023-04-03T11:43:06;103009.00;;;16.30
19282;BMP180;9774;52.034;5.342;2023-04-03T11:45:49;103006.00;;;16.30
19282;BMP180;9774;52.034;5.342;2023-04-03T11:48:49;103013.00;;;16.20
19282;BMP180;9774;52.034;5.342;2023-04-03T11:54:45;103004.00;;;16.20
19282;BMP180;9774;52.034;5.342;2023-04-03T11:57:45;103009.00;;;16.20
19282;BMP180;9774;52.034;5.342;2023-04-03T12:00:52;103012.00;;;16.30
19282;BMP180;9774;52.034;5.342;2023-04-03T12:03:57;103009.00;;;16.30
19282;BMP180;9774;52.034;5.342;2023-04-03T12:06:59;102985.00;;;16.30
19282;BMP180;9774;52.034;5.342;2023-04-03T12:09:34;102981.00;;;16.50
19282;BMP180;9774;52.034;5.342;2023-04-03T12:12:29;102973.00;;;16.40
19282;BMP180;9774;52.034;5.342;2023-04-03T12:15:17;102984.00;;;16.40
19282;BMP180;9774;52.034;5.342;2023-04-03T12:17:45;102971.00;;;16.60
19282;BMP180;9774;52.034;5.342;2023-04-03T12:20:51;102968.00;;;16.60
19282;BMP180;9774;52.034;5.342;2023-04-03T12:23:36;102977.00;;;16.60
19282;BMP180;9774;52.034;5.342;2023-04-03T12:26:18;102964.00;;;16.80
19282;BMP180;9774;52.034;5.342;2023-04-03T12:28:50;102969.00;;;16.80
19282;BMP180;9774;52.034;5.342;2023-04-03T12:31:19;102945.00;;;16.90
19282;BMP180;9774;52.034;5.342;2023-04-03T12:34:09;102952.00;;;16.80
19282;BMP180;9774;52.034;5.342;2023-04-03T12:36:46;102954.00;;;17.00
19282;BMP180;9774;52.034;5.342;2023-04-03T12:39:49;102952.00;;;17.00
19282;BMP180;9774;52.034;5.342;2023-04-03T12:42:46;102943.00;;;16.90
19282;BMP180;9774;52.034;5.342;2023-04-03T12:45:22;102943.00;;;17.00
19282;BMP180;9774;52.034;5.342;2023-04-03T12:47:52;102931.00;;;17.10
19282;BMP180;9774;52.034;5.342;2023-04-03T12:50:23;102923.00;;;17.20
19282;BMP180;9774;52.034;5.342;2023-04-03T12:52:56;102924.00;;;17.20
19282;BMP180;9774;52.034;5.342;2023-04-03T12:55:24;102931.00;;;17.30
19282;BMP180;9774;52.034;5.342;2023-04-03T12:57:52;102928.00;;;17.30
19282;BMP180;9774;52.034;5.342;2023-04-03T13:00:35;102927.00;;;17.30
19282;BMP180;9774;52.034;5.342;2023-04-03T13:03:06;102927.00;;;17.50
19282;BMP180;9774;52.034;5.342;2023-04-03T13:05:33;102918.00;;;17.60
19282;BMP180;9774;52.034;5.342;2023-04-03T13:08:03;102931.00;;;17.60
19282;BMP180;9774;52.034;5.342;2023-04-03T13:10:31;102917.00;;;17.70
19282;BMP180;9774;52.034;5.342;2023-04-03T13:13:07;102909.00;;;17.70
19282;BMP180;9774;52.034;5.342;2023-04-03T13:15:43;102908.00;;;17.80
19282;BMP180;9774;52.034;5.342;2023-04-03T13:18:36;102907.00;;;17.90
19282;BMP180;9774;52.034;5.342;2023-04-03T13:21:06;102915.00;;;18.10
19282;BMP180;9774;52.034;5.342;2023-04-03T13:23:38;102910.00;;;18.20
19282;BMP180;9774;52.034;5.342;2023-04-03T13:26:07;102915.00;;;18.50
19282;BMP180;9774;52.034;5.342;2023-04-03T13:28:35;102901.00;;;18.70
19282;BMP180;9774;52.034;5.342;2023-04-03T13:31:07;102907.00;;;19.00
19282;BMP180;9774;52.034;5.342;2023-04-03T13:33:37;102903.00;;;19.40
19282;BMP180;9774;52.034;5.342;2023-04-03T13:36:06;102903.00;;;19.90
19282;BMP180;9774;52.034;5.342;2023-04-03T13:38:36;102905.00;;;20.70
19282;BMP180;9774;52.034;5.342;2023-04-03T13:41:20;102910.00;;;21.60
19282;BMP180;9774;52.034;5.342;2023-04-03T13:43:48;102913.00;;;22.40
19282;BMP180;9774;52.034;5.342;2023-04-03T13:46:28;102919.00;;;23.00
19282;BMP180;9774;52.034;5.342;2023-04-03T13:48:56;102907.00;;;23.60
19282;BMP180;9774;52.034;5.342;2023-04-03T13:51:25;102925.00;;;24.30
19282;BMP180;9774;52.034;5.342;2023-04-03T13:53:55;102918.00;;;25.00
19282;BMP180;9774;52.034;5.342;2023-04-03T13:56:31;102916.00;;;25.60
19282;BMP180;9774;52.034;5.342;2023-04-03T13:59:06;102930.00;;;26.00
19282;BMP180;9774;52.034;5.342;2023-04-03T14:01:51;102923.00;;;26.40
19282;BMP180;9774;52.034;5.342;2023-04-03T14:04:21;102920.00;;;26.80
19282;BMP180;9774;52.034;5.342;2023-04-03T14:06:49;102908.00;;;27.30
19282;BMP180;9774;52.034;5.342;2023-04-03T14:09:18;102924.00;;;27.90
19282;BMP180;9774;52.034;5.342;2023-04-03T14:11:46;102915.00;;;28.50
19282;BMP180;9774;52.034;5.342;2023-04-03T14:14:16;102909.00;;;29.10
19282;BMP180;9774;52.034;5.342;2023-04-03T14:16:47;102914.00;;;29.60
19282;BMP180;9774;52.034;5.342;2023-04-03T14:19:19;102908.00;;;30.00
19282;BMP180;9774;52.034;5.342;2023-04-03T14:21:49;102915.00;;;30.30
19282;BMP180;9774;52.034;5.342;2023-04-03T14:24:17;102913.00;;;30.70
19282;BMP180;9774;52.034;5.342;2023-04-03T14:26:45;102910.00;;;31.10
19282;BMP180;9774;52.034;5.342;2023-04-03T14:29:13;102905.00;;;31.30
19282;BMP180;9774;52.034;5.342;2023-04-03T14:31:42;102902.00;;;31.60
19282;BMP180;9774;52.034;5.342;2023-04-03T14:34:12;102905.00;;;31.80
19282;BMP180;9774;52.034;5.342;2023-04-03T14:36:41;102913.00;;;32.00
19282;BMP180;9774;52.034;5.342;2023-04-03T14:39:11;102910.00;;;32.10
19282;BMP180;9774;52.034;5.342;2023-04-03T14:41:43;102899.00;;;32.30